Aktualne dane pomiarowe

Uwaga, wersja testowa! Automatyczne pobieranie danych za pomocą narzędzi lub skryptów to umożliwiających jest zabronione.

Dane meteo z obszaru Polski uzyskane na podstawie depesz SYNOP pobieranych co godzinę z NWS. Najedź myszką na symbol przedstawiony w tabeli, aby uzyskać informacje co do jego znaczenia. Prosimy pamiętać, że to testowa wersja strony, która jeszcze nie jest ukończona. Stworzono również jest krótki FAQ dotyczący korzystania z tej podstrony Anomalie temperatury w chwili obecnej odniesione są do okresu referencyjnego 1951-2016. Okres ten będzie później zmieniony na 1981-2010. Kliknij ikonę aby pobrać plik CSV. Kliknij ikonę aby wygenerować mapę synoptyczną dla danego terminu.

Wybierz Datę:    

        

Dęblin-Irena (12490)

Dane terminowe dla wybranej stacji. Kliknij datę, aby otrzymać dane z tego terminu dla wszystkich stacji.

TemperaturaZachmurzenieWiatrCiśnienieOpadyPogoda
 Data t td wb tx tn tg rh  Nt Nl Cl Cm Ch ws wd g1 g2 wx mslp ppp ch 24h 12h t ww ww w1 w2  
2019-07-12 23:00:00 15.1 10.3 12.1--- 7340.0--1wx---1009.3 995.3----------
2019-07-12 22:00:00 14.5 9.9 11.6--- 7440.0--1wx---1009.6 995.6----------
2019-07-12 21:00:00 16.0 9.7 12.1--- 6640.0--2wx---1009.5 995.6----------
2019-07-12 20:00:00 17.0 9.4 12.4--- 6120.0wxwxwx2wx---1009.7 995.8 0.7---------
2019-07-12 19:00:00 18.3 9.1 12.9--- 5520.0wxwxwx3wx---1009.6 995.8 0.8---------
2019-07-12 18:00:00 20.7 9.6 14.2--- 4920.0wxwxwxwx2wx---1009.0 995.3 0.0---------
2019-07-12 17:00:00 22.9 7.5 14.2--- 3720.0wxwxwxwx3wx---1008.7 995.1 -0.5---------
2019-07-12 16:00:00 24.1 5.5 13.9--- 3020.0wxwxwxwx1----1008.5 995.0 -0.9---------
2019-07-12 15:00:00 24.7 5.5 14.2--- 2920.0wxwxwxwx1----1008.8 995.3 -0.8---------
2019-07-12 14:00:00 23.6 5.5 13.7--- 3120.0wxwxwx1----1009.3 995.7 -0.8---------
2019-07-12 13:00:00 23.3 5.6 13.6--- 3220.0wxwxwx3wx---1009.5 995.9 -0.9---------
2019-07-12 12:00:00 24.0 5.4 13.9--- 3020.0wxwxwx2wx---1009.6 996.1 -0.9---------
2019-07-12 11:00:00 22.8 5.7 13.5--- 3320.0wxwxwxwx2wx---1010.2 996.6 -0.7---------
2019-07-12 10:00:00 23.8 6.2 14.1--- 3220.0wxwxwxwxwx4wx---1010.4 996.8 -0.6---------
2019-07-12 09:00:00 22.3 6.1 13.4--- 3520.0wxwxwxwxwx3wx---1010.6 997.1 -0.4---------
2019-07-12 08:00:00 21.0 8.0 13.6--- 4320.0wx-wxwx3wx---1011.0 997.3 -0.3---------
2019-07-12 07:00:00 18.3 9.3 13.0--- 5620.0wx-wxwx2wx---1011.3 997.4 0.0---------
2019-07-12 06:00:00 16.3 10.1 12.5--- 6715.0wx-wxwx2wx---1011.5 997.5 0.0---------
2019-07-12 05:00:00 13.1 10.1 11.1--- 8210.0wxwxwxwxwx1wx---1011.7 997.6 0.2---------
2019-07-12 04:00:00 10.1 8.9 9.2--- 9210.0wxwxwxwx1wx---1011.7 997.4 0.1---------
2019-07-12 03:00:00 6.6 5.9 6.1--- 9510.0wx-wx1wx---1012.0 997.5 0.0---wx---
2019-07-12 02:00:00 6.8 6.1 6.3--- 9510.0wx-wx1wx---1011.9 997.4 -0.3---wx---
2019-07-12 01:00:00 8.3 7.2 7.5--- 9310.0wx-wx2wx---1011.7 997.3 -0.4---------
2019-07-12 00:00:00 10.1 8.6 9.1--- 9030.0--0wx---1011.8 997.5----------
2019-07-11 23:00:00 11.0 9.4 9.9--- 9020.0--1wx---1012.0 997.7----------
2019-07-11 22:00:00 11.1 9.5 10.0--- 9030.0--0wx---1011.9 997.7----------
2019-07-11 21:00:00 11.1 9.5 10.0--- 9030.0--0wx---1011.8 997.6----------
2019-07-11 20:00:00 12.7 10.4 11.1--- 8610.0wxwxwxwx1wx---1011.6 997.4 0.4---------
2019-07-11 19:00:00 15.6 10.4 12.3--- 7110.0wxwxwxwx2wx---1011.3 997.3 0.3---------
2019-07-11 18:00:00 18.2 8.5 12.5--- 5310.0wxwxwxwx2wx---1011.0 997.1 0.1---------
2019-07-11 17:00:00 18.8 8.5 12.8--- 5110.0wxwxwx3wx---1010.9 997.1 0.4---------
2019-07-11 16:00:00 19.8 8.2 13.1--- 4710.0wxwxwxwx4wx---1010.8 997.0 0.0---------
2019-07-11 15:00:00 19.2 8.6 13.0--- 5010.0wxwxwxwx4wx---1010.8 997.0 0.0---------
2019-07-11 14:00:00 19.6 7.7 12.8--- 4610.0wxwxwxwx5wx---1010.6 996.8 -0.1---------
2019-07-11 13:00:00 17.5 8.9 12.4--- 5710.0wxwxwxwx3wx---1010.9 997.0 0.0---------
2019-07-11 12:00:00 17.9 9.0 12.6--- 5610.0wxwxwxwx4wx---1010.9 997.0 -0.6---------
2019-07-11 11:00:00 16.9 9.1 12.2--- 6010.0wxwxwxwx4wx---1010.9 997.0 -0.3---------
2019-07-11 10:00:00 16.5 10.1 12.5--- 6610.0wxwxwxwx3wx---1011.0 997.1 0.2---------
2019-07-11 09:00:00 14.1 11.1 12.1--- 8210.0wxwxwxwx4wx---1011.7 997.6 0.7---wx-w1--
2019-07-11 08:00:00 14.0 10.4 11.7--- 798.0wxwxwx4wx---1011.4 997.3 0.6---wx---
2019-07-11 07:00:00 14.4 10.4 11.8--- 7710.0wxwxwxwx4wx---1011.0 996.9 0.3---------
2019-07-11 06:00:00 13.4 10.2 11.3--- 8110.0wxwxwxwx5wx---1011.0 996.9 0.2---------
2019-07-11 05:00:00 13.1 10.4 11.3--- 8410.0wxwxwxwx4wx---1011.0 996.8 0.1---------
2019-07-11 04:00:00 12.2 10.4 11.0--- 8910.0wxwxwxwx4wx---1010.7 996.5 -0.2---------
2019-07-11 03:00:00 11.4 9.8 10.3--- 9010.0wxwxwxwx4wx---1010.9 996.7 -0.2---wx---
2.0 ms

 

Print Friendly, PDF & Email